LPE2198 SPQT-SPJC
Flight info
| Callsign | LPE2198 |
|---|---|
| Flight time | 1h 26m |
| Altitude | 38000 |
| Route | RONSO UP776 ILROL |
| Aircraft | A320/M-SDE3FGHIRWY/LB1 |
Departure
| Time | 2026-05-07 02:11 |
|---|---|
| Airport | Coronel FAP Francisco Secada Vignetta International Airport (SPQT) |
Arrival
| Time | 2026-05-07 03:38 |
|---|---|
| Airport | Jorge Chávez International Airport (SPJC) |
| Time | Latitude | Longitude | Altitude | Speed | Heading |
|---|---|---|---|---|---|
| 2026-05-07 02:07 | -3.78195 | -73.30292 | 307 ft | 0 kts | 11° |
| 2026-05-07 02:08 | -3.78178 | -73.30289 | 309 ft | 4 kts | 9° |
| 2026-05-07 02:08 | -3.78157 | -73.30286 | 309 ft | 6 kts | 11° |
| 2026-05-07 02:08 | -3.78097 | -73.30273 | 312 ft | 11 kts | 12° |
| 2026-05-07 02:09 | -3.78026 | -73.30205 | 312 ft | 18 kts | 58° |
| 2026-05-07 02:09 | -3.77959 | -73.30097 | 312 ft | 19 kts | 57° |
| 2026-05-07 02:09 | -3.77909 | -73.30010 | 311 ft | 12 kts | 87° |
| 2026-05-07 02:09 | -3.77906 | -73.29936 | 309 ft | 10 kts | 37° |
| 2026-05-07 02:10 | -3.77867 | -73.29957 | 311 ft | 5 kts | 271° |
| 2026-05-07 02:10 | -3.77876 | -73.29973 | 311 ft | 0 kts | 237° |
| 2026-05-07 02:10 | -3.77902 | -73.30012 | 311 ft | 29 kts | 237° |
| 2026-05-07 02:10 | -3.78158 | -73.30401 | 313 ft | 102 kts | 237° |
| 2026-05-07 02:11 | -3.78661 | -73.31164 | 314 ft | 158 kts | 237° |
| 2026-05-07 02:11 | -3.79309 | -73.32131 | 754 ft | 171 kts | 236° |
| 2026-05-07 02:11 | -3.79988 | -73.33132 | 1401 ft | 173 kts | 232° |
| 2026-05-07 02:11 | -3.80800 | -73.34064 | 1919 ft | 186 kts | 226° |
| 2026-05-07 02:12 | -3.81757 | -73.35052 | 2219 ft | 209 kts | 225° |
| 2026-05-07 02:12 | -3.82843 | -73.36153 | 2536 ft | 235 kts | 225° |
| 2026-05-07 02:12 | -3.84050 | -73.37381 | 2966 ft | 258 kts | 225° |
| 2026-05-07 02:12 | -3.85336 | -73.38698 | 3677 ft | 268 kts | 226° |
| 2026-05-07 02:13 | -3.86632 | -73.40035 | 4518 ft | 273 kts | 226° |
| 2026-05-07 02:13 | -3.87961 | -73.41414 | 5364 ft | 277 kts | 226° |
| 2026-05-07 02:13 | -3.89309 | -73.42818 | 6205 ft | 282 kts | 226° |
| 2026-05-07 02:13 | -3.90675 | -73.44243 | 7004 ft | 286 kts | 226° |
| 2026-05-07 02:14 | -3.92067 | -73.45692 | 7775 ft | 290 kts | 225° |
| 2026-05-07 02:14 | -3.93477 | -73.47159 | 8570 ft | 294 kts | 225° |
| 2026-05-07 02:14 | -3.94905 | -73.48643 | 9361 ft | 297 kts | 225° |
| 2026-05-07 02:14 | -3.96354 | -73.50150 | 10109 ft | 303 kts | 225° |
| 2026-05-07 02:15 | -3.97867 | -73.51727 | 10377 ft | 325 kts | 225° |
| 2026-05-07 02:15 | -3.99463 | -73.53391 | 10741 ft | 341 kts | 225° |
| 2026-05-07 02:15 | -4.01117 | -73.55118 | 11390 ft | 346 kts | 225° |
| 2026-05-07 02:15 | -4.02800 | -73.56872 | 12090 ft | 350 kts | 225° |
| 2026-05-07 02:16 | -4.04502 | -73.58643 | 12802 ft | 353 kts | 225° |
| 2026-05-07 02:16 | -4.06194 | -73.60407 | 13492 ft | 356 kts | 225° |
| 2026-05-07 02:16 | -4.07922 | -73.62209 | 14120 ft | 360 kts | 225° |
| 2026-05-07 02:16 | -4.09665 | -73.64031 | 14714 ft | 363 kts | 225° |
| 2026-05-07 02:17 | -4.11426 | -73.65870 | 15262 ft | 367 kts | 225° |
| 2026-05-07 02:17 | -4.13209 | -73.67727 | 15831 ft | 371 kts | 225° |
| 2026-05-07 02:17 | -4.15007 | -73.69602 | 16401 ft | 374 kts | 225° |
| 2026-05-07 02:17 | -4.16827 | -73.71499 | 16960 ft | 378 kts | 225° |
| 2026-05-07 02:18 | -4.18635 | -73.73383 | 17508 ft | 382 kts | 224° |
| 2026-05-07 02:18 | -4.20487 | -73.75315 | 18063 ft | 385 kts | 224° |
| 2026-05-07 02:18 | -4.22356 | -73.77264 | 18557 ft | 388 kts | 224° |
| 2026-05-07 02:18 | -4.24237 | -73.79227 | 19027 ft | 391 kts | 224° |
| 2026-05-07 02:19 | -4.26131 | -73.81205 | 19487 ft | 394 kts | 225° |
| 2026-05-07 02:19 | -4.28040 | -73.83200 | 19946 ft | 398 kts | 225° |
| 2026-05-07 02:19 | -4.29939 | -73.85183 | 20396 ft | 401 kts | 225° |
| 2026-05-07 02:19 | -4.31882 | -73.87211 | 20844 ft | 404 kts | 225° |
| 2026-05-07 02:20 | -4.33836 | -73.89251 | 21275 ft | 407 kts | 225° |
| 2026-05-07 02:20 | -4.35833 | -73.91285 | 21708 ft | 409 kts | 220° |
| 2026-05-07 02:20 | -4.38099 | -73.93012 | 22125 ft | 410 kts | 210° |
| 2026-05-07 02:20 | -4.40608 | -73.94399 | 22550 ft | 412 kts | 206° |
| 2026-05-07 02:21 | -4.43139 | -73.95761 | 22970 ft | 415 kts | 206° |
| 2026-05-07 02:21 | -4.45660 | -73.97123 | 23388 ft | 418 kts | 206° |
| 2026-05-07 02:21 | -4.48228 | -73.98513 | 23751 ft | 421 kts | 206° |
| 2026-05-07 02:21 | -4.50814 | -73.99916 | 24084 ft | 424 kts | 207° |
| 2026-05-07 02:22 | -4.53415 | -74.01330 | 24424 ft | 426 kts | 207° |
| 2026-05-07 02:22 | -4.56034 | -74.02752 | 24759 ft | 429 kts | 207° |
| 2026-05-07 02:22 | -4.58664 | -74.04178 | 25095 ft | 431 kts | 207° |
| 2026-05-07 02:22 | -4.61311 | -74.05613 | 25428 ft | 433 kts | 207° |
| 2026-05-07 02:23 | -4.63975 | -74.07058 | 25754 ft | 436 kts | 207° |
| 2026-05-07 02:23 | -4.66620 | -74.08494 | 26081 ft | 438 kts | 207° |
| 2026-05-07 02:23 | -4.69313 | -74.09952 | 26410 ft | 440 kts | 207° |
| 2026-05-07 02:23 | -4.72018 | -74.11416 | 26731 ft | 443 kts | 207° |
| 2026-05-07 02:24 | -4.74735 | -74.12885 | 26962 ft | 445 kts | 207° |
| 2026-05-07 02:24 | -4.77465 | -74.14362 | 27020 ft | 445 kts | 207° |
| 2026-05-07 02:24 | -4.80203 | -74.15844 | 27273 ft | 447 kts | 207° |
| 2026-05-07 02:24 | -4.82951 | -74.17335 | 27590 ft | 450 kts | 207° |
| 2026-05-07 02:25 | -4.85713 | -74.18837 | 27893 ft | 452 kts | 207° |
| 2026-05-07 02:25 | -4.88488 | -74.20346 | 28185 ft | 454 kts | 207° |
| 2026-05-07 02:25 | -4.91275 | -74.21860 | 28471 ft | 457 kts | 207° |
| 2026-05-07 02:25 | -4.94045 | -74.23361 | 28755 ft | 459 kts | 207° |
| 2026-05-07 02:26 | -4.96874 | -74.24892 | 29045 ft | 461 kts | 207° |
| 2026-05-07 02:26 | -4.99712 | -74.26433 | 29335 ft | 464 kts | 207° |
| 2026-05-07 02:26 | -5.02557 | -74.27975 | 29616 ft | 466 kts | 207° |
| 2026-05-07 02:26 | -5.04462 | -74.29007 | 29801 ft | 468 kts | 207° |
| 2026-05-07 02:27 | -5.08270 | -74.31073 | 30139 ft | 471 kts | 208° |
| 2026-05-07 02:27 | -5.11152 | -74.32638 | 30362 ft | 473 kts | 208° |
| 2026-05-07 02:27 | -5.14054 | -74.34210 | 30607 ft | 474 kts | 208° |
| 2026-05-07 02:27 | -5.16016 | -74.35271 | 30787 ft | 475 kts | 208° |
| 2026-05-07 02:28 | -5.18894 | -74.36829 | 31015 ft | 476 kts | 208° |
| 2026-05-07 02:28 | -5.21814 | -74.38415 | 31250 ft | 477 kts | 208° |
| 2026-05-07 02:28 | -5.24739 | -74.40007 | 31521 ft | 477 kts | 208° |
| 2026-05-07 02:28 | -5.27659 | -74.41596 | 31875 ft | 475 kts | 208° |
| 2026-05-07 02:29 | -5.30562 | -74.43176 | 32241 ft | 473 kts | 208° |
| 2026-05-07 02:29 | -5.33453 | -74.44748 | 32608 ft | 471 kts | 208° |
| 2026-05-07 02:29 | -5.36333 | -74.46312 | 32983 ft | 469 kts | 208° |
| 2026-05-07 02:29 | -5.39162 | -74.47849 | 33350 ft | 467 kts | 208° |
| 2026-05-07 02:30 | -5.42014 | -74.49400 | 33740 ft | 465 kts | 208° |
| 2026-05-07 02:30 | -5.44851 | -74.50944 | 34112 ft | 463 kts | 208° |
| 2026-05-07 02:30 | -5.47678 | -74.52483 | 34428 ft | 461 kts | 208° |
| 2026-05-07 02:30 | -5.50495 | -74.54017 | 34747 ft | 459 kts | 208° |
| 2026-05-07 02:31 | -5.53300 | -74.55543 | 35069 ft | 457 kts | 208° |
| 2026-05-07 02:31 | -5.56088 | -74.57057 | 35367 ft | 455 kts | 208° |
| 2026-05-07 02:31 | -5.58887 | -74.58571 | 35659 ft | 453 kts | 208° |
| 2026-05-07 02:31 | -5.61626 | -74.60052 | 35937 ft | 452 kts | 208° |
| 2026-05-07 02:32 | -5.64391 | -74.61551 | 36212 ft | 450 kts | 208° |
| 2026-05-07 02:32 | -5.67143 | -74.63049 | 36483 ft | 449 kts | 209° |
| 2026-05-07 02:32 | -5.69886 | -74.64544 | 36756 ft | 447 kts | 209° |
| 2026-05-07 02:32 | -5.72622 | -74.66033 | 37024 ft | 446 kts | 209° |
| 2026-05-07 02:33 | -5.75357 | -74.67519 | 37280 ft | 444 kts | 209° |
| 2026-05-07 02:33 | -5.78037 | -74.68977 | 37532 ft | 443 kts | 209° |
| 2026-05-07 02:33 | -5.80744 | -74.70453 | 37781 ft | 442 kts | 209° |
| 2026-05-07 02:33 | -5.83447 | -74.71924 | 37974 ft | 441 kts | 209° |
| 2026-05-07 02:34 | -5.88832 | -74.74859 | 38024 ft | 438 kts | 209° |
| 2026-05-07 02:34 | -5.94194 | -74.77787 | 38022 ft | 438 kts | 209° |
| 2026-05-07 02:35 | -5.99528 | -74.80685 | 38020 ft | 438 kts | 209° |
| 2026-05-07 02:35 | -6.04892 | -74.83594 | 38017 ft | 438 kts | 209° |
| 2026-05-07 02:36 | -6.10251 | -74.86516 | 38019 ft | 438 kts | 210° |
| 2026-05-07 02:36 | -6.15610 | -74.89447 | 38023 ft | 438 kts | 210° |
| 2026-05-07 02:37 | -6.20974 | -74.92366 | 38017 ft | 438 kts | 210° |
| 2026-05-07 02:37 | -6.26313 | -74.95274 | 38018 ft | 438 kts | 210° |
| 2026-05-07 02:38 | -6.31679 | -74.98205 | 38018 ft | 438 kts | 210° |
| 2026-05-07 02:38 | -6.37045 | -75.01131 | 38016 ft | 439 kts | 210° |
| 2026-05-07 02:39 | -6.42425 | -75.04063 | 38016 ft | 439 kts | 210° |
| 2026-05-07 02:39 | -6.47771 | -75.06977 | 38013 ft | 439 kts | 210° |
| 2026-05-07 02:40 | -6.53154 | -75.09913 | 38014 ft | 439 kts | 210° |
| 2026-05-07 02:40 | -6.58535 | -75.12853 | 38020 ft | 439 kts | 210° |
| 2026-05-07 02:41 | -6.63909 | -75.15788 | 38020 ft | 439 kts | 210° |
| 2026-05-07 02:41 | -6.69257 | -75.18710 | 38019 ft | 439 kts | 211° |
| 2026-05-07 02:42 | -6.74632 | -75.21647 | 38020 ft | 439 kts | 211° |
| 2026-05-07 02:42 | -6.80011 | -75.24582 | 38019 ft | 439 kts | 211° |
| 2026-05-07 02:43 | -6.85393 | -75.27523 | 38020 ft | 439 kts | 211° |
| 2026-05-07 02:43 | -6.90731 | -75.30442 | 38019 ft | 439 kts | 211° |
| 2026-05-07 02:44 | -6.96101 | -75.33386 | 38016 ft | 438 kts | 211° |
| 2026-05-07 02:44 | -7.01466 | -75.36328 | 38015 ft | 438 kts | 211° |
| 2026-05-07 02:45 | -7.06794 | -75.39250 | 38010 ft | 438 kts | 211° |
| 2026-05-07 02:45 | -7.12172 | -75.42190 | 38007 ft | 439 kts | 211° |
| 2026-05-07 02:46 | -7.17546 | -75.45124 | 38007 ft | 439 kts | 211° |
| 2026-05-07 02:46 | -7.22898 | -75.48049 | 38008 ft | 439 kts | 211° |
| 2026-05-07 02:47 | -7.28273 | -75.50997 | 38005 ft | 439 kts | 211° |
| 2026-05-07 02:47 | -7.33651 | -75.53951 | 38002 ft | 439 kts | 211° |
| 2026-05-07 02:48 | -7.39000 | -75.56880 | 38006 ft | 440 kts | 211° |
| 2026-05-07 02:48 | -7.44389 | -75.59836 | 38006 ft | 440 kts | 211° |
| 2026-05-07 02:49 | -7.49768 | -75.62793 | 38014 ft | 440 kts | 211° |
| 2026-05-07 02:49 | -7.55118 | -75.65727 | 38017 ft | 440 kts | 211° |
| 2026-05-07 02:50 | -7.60507 | -75.68683 | 38025 ft | 440 kts | 211° |
| 2026-05-07 02:50 | -7.65893 | -75.71637 | 38020 ft | 440 kts | 211° |
| 2026-05-07 02:51 | -7.71277 | -75.74593 | 38030 ft | 440 kts | 210° |
| 2026-05-07 02:51 | -7.76630 | -75.77538 | 38036 ft | 441 kts | 210° |
| 2026-05-07 02:52 | -7.82026 | -75.80507 | 38043 ft | 441 kts | 210° |
| 2026-05-07 02:52 | -7.87425 | -75.83475 | 38049 ft | 441 kts | 210° |
| 2026-05-07 02:53 | -7.92791 | -75.86413 | 38054 ft | 441 kts | 210° |
| 2026-05-07 02:53 | -7.98180 | -75.89374 | 38059 ft | 440 kts | 211° |
| 2026-05-07 02:54 | -8.03569 | -75.92336 | 38068 ft | 441 kts | 210° |
| 2026-05-07 02:54 | -8.08961 | -75.95301 | 38073 ft | 441 kts | 211° |
| 2026-05-07 02:55 | -8.14319 | -75.98257 | 38081 ft | 441 kts | 210° |
| 2026-05-07 02:55 | -8.19714 | -76.01225 | 38082 ft | 441 kts | 210° |
| 2026-05-07 02:56 | -8.25117 | -76.04187 | 38088 ft | 441 kts | 210° |
| 2026-05-07 02:56 | -8.30515 | -76.07158 | 38092 ft | 441 kts | 210° |
| 2026-05-07 02:57 | -8.35859 | -76.10111 | 38093 ft | 441 kts | 210° |
| 2026-05-07 02:57 | -8.41246 | -76.13083 | 38093 ft | 441 kts | 210° |
| 2026-05-07 02:58 | -8.46643 | -76.16056 | 38094 ft | 441 kts | 210° |
| 2026-05-07 02:58 | -8.52034 | -76.19029 | 38091 ft | 441 kts | 210° |
| 2026-05-07 02:59 | -8.57385 | -76.21982 | 38095 ft | 441 kts | 210° |
| 2026-05-07 02:59 | -8.62780 | -76.24952 | 38099 ft | 441 kts | 210° |
| 2026-05-07 03:00 | -8.68174 | -76.27930 | 38105 ft | 441 kts | 210° |
| 2026-05-07 03:00 | -8.73575 | -76.30915 | 38112 ft | 441 kts | 210° |
| 2026-05-07 03:01 | -8.78933 | -76.33876 | 38121 ft | 441 kts | 210° |
| 2026-05-07 03:01 | -8.84322 | -76.36863 | 38134 ft | 441 kts | 210° |
| 2026-05-07 03:02 | -8.89718 | -76.39850 | 38149 ft | 441 kts | 211° |
| 2026-05-07 03:02 | -8.95119 | -76.42834 | 38164 ft | 442 kts | 211° |
| 2026-05-07 03:03 | -9.00495 | -76.45801 | 38180 ft | 442 kts | 211° |
| 2026-05-07 03:03 | -9.05901 | -76.48787 | 38201 ft | 442 kts | 211° |
| 2026-05-07 03:04 | -9.11307 | -76.51785 | 38217 ft | 442 kts | 211° |
| 2026-05-07 03:04 | -9.16714 | -76.54776 | 38226 ft | 442 kts | 211° |
| 2026-05-07 03:05 | -9.22114 | -76.57766 | 38242 ft | 442 kts | 211° |
| 2026-05-07 03:05 | -9.27479 | -76.60739 | 38269 ft | 443 kts | 211° |
| 2026-05-07 03:06 | -9.32886 | -76.63737 | 38283 ft | 443 kts | 211° |
| 2026-05-07 03:06 | -9.38291 | -76.66739 | 38293 ft | 442 kts | 211° |
| 2026-05-07 03:07 | -9.43701 | -76.69741 | 38308 ft | 443 kts | 211° |
| 2026-05-07 03:07 | -9.49113 | -76.72742 | 38320 ft | 443 kts | 211° |
| 2026-05-07 03:08 | -9.54518 | -76.75745 | 38325 ft | 443 kts | 211° |
| 2026-05-07 03:08 | -9.59891 | -76.78727 | 38329 ft | 443 kts | 211° |
| 2026-05-07 03:09 | -9.65306 | -76.81730 | 38322 ft | 442 kts | 211° |
| 2026-05-07 03:09 | -9.69790 | -76.84228 | 38324 ft | 442 kts | 211° |
| 2026-05-07 03:10 | -9.75205 | -76.87242 | 38324 ft | 443 kts | 211° |
| 2026-05-07 03:10 | -9.80610 | -76.90253 | 38322 ft | 443 kts | 211° |
| 2026-05-07 03:11 | -9.85989 | -76.93242 | 38314 ft | 443 kts | 211° |
| 2026-05-07 03:11 | -9.91404 | -76.96247 | 38318 ft | 443 kts | 211° |
| 2026-05-07 03:12 | -9.96813 | -76.99256 | 38313 ft | 443 kts | 211° |
| 2026-05-07 03:12 | -10.02220 | -77.02271 | 38307 ft | 443 kts | 211° |
| 2026-05-07 03:13 | -10.04898 | -77.03765 | 38094 ft | 444 kts | 211° |
| 2026-05-07 03:13 | -10.07611 | -77.05277 | 37469 ft | 444 kts | 211° |
| 2026-05-07 03:13 | -10.10319 | -77.06786 | 36806 ft | 444 kts | 211° |
| 2026-05-07 03:13 | -10.13029 | -77.08296 | 36212 ft | 442 kts | 211° |
| 2026-05-07 03:14 | -10.15719 | -77.09794 | 35702 ft | 439 kts | 211° |
| 2026-05-07 03:14 | -10.18398 | -77.11284 | 35167 ft | 438 kts | 211° |
| 2026-05-07 03:14 | -10.23732 | -77.14260 | 34066 ft | 436 kts | 211° |
| 2026-05-07 03:15 | -10.26382 | -77.15744 | 33513 ft | 434 kts | 211° |
| 2026-05-07 03:15 | -10.28992 | -77.17204 | 32988 ft | 431 kts | 211° |
| 2026-05-07 03:15 | -10.31618 | -77.18671 | 32457 ft | 429 kts | 211° |
| 2026-05-07 03:15 | -10.34233 | -77.20129 | 31933 ft | 427 kts | 211° |
| 2026-05-07 03:16 | -10.36838 | -77.21582 | 31422 ft | 425 kts | 211° |
| 2026-05-07 03:16 | -10.39431 | -77.23030 | 30914 ft | 424 kts | 211° |
| 2026-05-07 03:16 | -10.41981 | -77.24457 | 30417 ft | 423 kts | 211° |
| 2026-05-07 03:16 | -10.44593 | -77.25919 | 29869 ft | 422 kts | 210° |
| 2026-05-07 03:17 | -10.47124 | -77.27334 | 29390 ft | 418 kts | 210° |
| 2026-05-07 03:17 | -10.49694 | -77.28684 | 28915 ft | 415 kts | 203° |
| 2026-05-07 03:17 | -10.52443 | -77.29533 | 28446 ft | 412 kts | 190° |
| 2026-05-07 03:17 | -10.55297 | -77.29790 | 27964 ft | 409 kts | 181° |
| 2026-05-07 03:18 | -10.58142 | -77.29831 | 27488 ft | 407 kts | 181° |
| 2026-05-07 03:18 | -10.60964 | -77.29874 | 27016 ft | 405 kts | 181° |
| 2026-05-07 03:18 | -10.63781 | -77.29923 | 26516 ft | 403 kts | 181° |
| 2026-05-07 03:18 | -10.66588 | -77.29976 | 26027 ft | 402 kts | 181° |
| 2026-05-07 03:19 | -10.69341 | -77.30029 | 25515 ft | 401 kts | 181° |
| 2026-05-07 03:19 | -10.72130 | -77.30080 | 25004 ft | 399 kts | 180° |
| 2026-05-07 03:19 | -10.74907 | -77.30130 | 24446 ft | 399 kts | 180° |
| 2026-05-07 03:19 | -10.77689 | -77.30177 | 23896 ft | 399 kts | 180° |
| 2026-05-07 03:20 | -10.80454 | -77.30225 | 23501 ft | 394 kts | 180° |
| 2026-05-07 03:20 | -10.83185 | -77.30273 | 22906 ft | 392 kts | 180° |
| 2026-05-07 03:20 | -10.85930 | -77.30321 | 22197 ft | 395 kts | 180° |
| 2026-05-07 03:20 | -10.88683 | -77.30371 | 21662 ft | 395 kts | 180° |
| 2026-05-07 03:21 | -10.91427 | -77.30423 | 21116 ft | 393 kts | 180° |
| 2026-05-07 03:21 | -10.94137 | -77.30475 | 20873 ft | 383 kts | 180° |
| 2026-05-07 03:21 | -10.96740 | -77.30523 | 20670 ft | 373 kts | 180° |
| 2026-05-07 03:21 | -10.99294 | -77.30568 | 20539 ft | 361 kts | 180° |
| 2026-05-07 03:22 | -11.01771 | -77.30611 | 20427 ft | 351 kts | 180° |
| 2026-05-07 03:22 | -11.04196 | -77.30653 | 20233 ft | 347 kts | 180° |
| 2026-05-07 03:22 | -11.06593 | -77.30695 | 19908 ft | 342 kts | 180° |
| 2026-05-07 03:22 | -11.08955 | -77.30738 | 19383 ft | 338 kts | 180° |
| 2026-05-07 03:23 | -11.11294 | -77.30780 | 18888 ft | 335 kts | 180° |
| 2026-05-07 03:23 | -11.13616 | -77.30822 | 18492 ft | 332 kts | 180° |
| 2026-05-07 03:23 | -11.15915 | -77.30864 | 17971 ft | 328 kts | 180° |
| 2026-05-07 03:23 | -11.18193 | -77.30905 | 17361 ft | 326 kts | 180° |
| 2026-05-07 03:24 | -11.20453 | -77.30944 | 16836 ft | 324 kts | 180° |
| 2026-05-07 03:24 | -11.22699 | -77.30982 | 16297 ft | 320 kts | 180° |
| 2026-05-07 03:24 | -11.24896 | -77.31018 | 15709 ft | 318 kts | 180° |
| 2026-05-07 03:24 | -11.27099 | -77.31057 | 15127 ft | 316 kts | 180° |
| 2026-05-07 03:25 | -11.29290 | -77.31093 | 14555 ft | 313 kts | 180° |
| 2026-05-07 03:25 | -11.31464 | -77.31130 | 13978 ft | 311 kts | 180° |
| 2026-05-07 03:25 | -11.33623 | -77.31168 | 13375 ft | 308 kts | 180° |
| 2026-05-07 03:25 | -11.35757 | -77.31205 | 12774 ft | 305 kts | 180° |
| 2026-05-07 03:26 | -11.37869 | -77.31240 | 12171 ft | 302 kts | 180° |
| 2026-05-07 03:26 | -11.39962 | -77.31274 | 11582 ft | 299 kts | 180° |
| 2026-05-07 03:26 | -11.42033 | -77.31308 | 11004 ft | 297 kts | 180° |
| 2026-05-07 03:26 | -11.44099 | -77.31344 | 10640 ft | 296 kts | 180° |
| 2026-05-07 03:27 | -11.46121 | -77.31379 | 10254 ft | 292 kts | 180° |
| 2026-05-07 03:27 | -11.48152 | -77.31413 | 9769 ft | 290 kts | 180° |
| 2026-05-07 03:27 | -11.50165 | -77.31448 | 9252 ft | 288 kts | 180° |
| 2026-05-07 03:27 | -11.52159 | -77.31484 | 8743 ft | 286 kts | 180° |
| 2026-05-07 03:28 | -11.54145 | -77.31520 | 8280 ft | 285 kts | 180° |
| 2026-05-07 03:28 | -11.56093 | -77.31554 | 8119 ft | 275 kts | 180° |
| 2026-05-07 03:28 | -11.57972 | -77.31587 | 7990 ft | 264 kts | 180° |
| 2026-05-07 03:28 | -11.59790 | -77.31618 | 7730 ft | 259 kts | 180° |
| 2026-05-07 03:29 | -11.61585 | -77.31644 | 7400 ft | 257 kts | 178° |
| 2026-05-07 03:29 | -11.63338 | -77.31372 | 7067 ft | 254 kts | 161° |
| 2026-05-07 03:29 | -11.64936 | -77.30672 | 6720 ft | 253 kts | 154° |
| 2026-05-07 03:29 | -11.66526 | -77.29915 | 6366 ft | 252 kts | 155° |
| 2026-05-07 03:30 | -11.68115 | -77.29165 | 5998 ft | 250 kts | 155° |
| 2026-05-07 03:30 | -11.69601 | -77.28465 | 5837 ft | 234 kts | 155° |
| 2026-05-07 03:30 | -11.71038 | -77.27789 | 5549 ft | 225 kts | 155° |
| 2026-05-07 03:30 | -11.72461 | -77.27119 | 5092 ft | 225 kts | 155° |
| 2026-05-07 03:31 | -11.73873 | -77.26453 | 4796 ft | 219 kts | 155° |
| 2026-05-07 03:31 | -11.75222 | -77.25816 | 4674 ft | 209 kts | 155° |
| 2026-05-07 03:31 | -11.76526 | -77.25200 | 4368 ft | 205 kts | 155° |
| 2026-05-07 03:31 | -11.77820 | -77.24589 | 4045 ft | 203 kts | 155° |
| 2026-05-07 03:32 | -11.79096 | -77.23993 | 3995 ft | 197 kts | 155° |
| 2026-05-07 03:32 | -11.80336 | -77.23394 | 3952 ft | 204 kts | 154° |
| 2026-05-07 03:32 | -11.81620 | -77.22764 | 3751 ft | 201 kts | 154° |
| 2026-05-07 03:32 | -11.82857 | -77.22156 | 3536 ft | 193 kts | 154° |
| 2026-05-07 03:33 | -11.84051 | -77.21567 | 3336 ft | 187 kts | 154° |
| 2026-05-07 03:33 | -11.85205 | -77.20999 | 3135 ft | 181 kts | 154° |
| 2026-05-07 03:33 | -11.86325 | -77.20447 | 2935 ft | 177 kts | 154° |
| 2026-05-07 03:33 | -11.87408 | -77.19914 | 2751 ft | 173 kts | 154° |
| 2026-05-07 03:34 | -11.88470 | -77.19391 | 2649 ft | 163 kts | 154° |
| 2026-05-07 03:34 | -11.89471 | -77.18898 | 2520 ft | 156 kts | 153° |
| 2026-05-07 03:34 | -11.90440 | -77.18420 | 2357 ft | 153 kts | 153° |
| 2026-05-07 03:34 | -11.91405 | -77.17944 | 2165 ft | 155 kts | 153° |
| 2026-05-07 03:35 | -11.92382 | -77.17463 | 1965 ft | 156 kts | 153° |
| 2026-05-07 03:35 | -11.93359 | -77.16981 | 1754 ft | 155 kts | 154° |
| 2026-05-07 03:35 | -11.94318 | -77.16508 | 1551 ft | 151 kts | 154° |
| 2026-05-07 03:35 | -11.95244 | -77.16052 | 1377 ft | 144 kts | 154° |
| 2026-05-07 03:36 | -11.96134 | -77.15613 | 1183 ft | 142 kts | 155° |
| 2026-05-07 03:36 | -11.96976 | -77.15198 | 1009 ft | 140 kts | 155° |
| 2026-05-07 03:36 | -11.97853 | -77.14765 | 816 ft | 139 kts | 156° |
| 2026-05-07 03:36 | -11.98722 | -77.14337 | 634 ft | 138 kts | 156° |
| 2026-05-07 03:37 | -11.99584 | -77.13916 | 444 ft | 137 kts | 156° |
| 2026-05-07 03:37 | -12.00436 | -77.13494 | 260 ft | 136 kts | 155° |
| 2026-05-07 03:37 | -12.01281 | -77.13072 | 67 ft | 135 kts | 155° |
| 2026-05-07 03:37 | -12.02050 | -77.12695 | 42 ft | 100 kts | 154° |
| 2026-05-07 03:38 | -12.02519 | -77.12463 | 49 ft | 50 kts | 154° |
| 2026-05-07 03:38 | -12.02680 | -77.12354 | 52 ft | 18 kts | 134° |
| 2026-05-07 03:38 | -12.02759 | -77.12251 | 54 ft | 18 kts | 122° |
| 2026-05-07 03:38 | -12.02726 | -77.12191 | 62 ft | 0 kts | 353° |